Time;durP1;ratioP1;P1;durP2;ratioP2;P2;SDS_P1;SDS_P2;PMS_P1;PMS_P2;Temp;Humidity;BMP_temperature;BMP_pressure;BME280_temperature;BME280_humidity;BME280_pressure;Samples;Min_cycle;Max_cycle;Signal;HPM_P1;HPM_P2
2024/04/08 05:11:20;;;;;;;;;;;;;;;11.45;100.00;100896.14;1884136;74;20407;-74
2024/04/08 05:13:47;;;;;;;;;;;;;;;11.62;100.00;100898.80;1854648;77;20115;-77
2024/04/08 05:18:53;;;;;;;;;;;;;;;12.26;100.00;100905.74;1816466;76;20121;-70
2024/04/08 05:21:22;;;;;;;;;;;;;;;12.77;100.00;100900.12;1833572;77;20179;-75
2024/04/08 05:23:59;;;;;;;;;;;;;;;13.32;100.00;100909.01;1873032;76;20136;-72
2024/04/08 05:26:28;;;;;;;;;;;;;;;13.93;100.00;100906.50;1830961;76;20101;-70
2024/04/08 05:28:54;;;;;;;;;;;;;;;14.56;100.00;100904.22;1828773;77;20484;-71
2024/04/08 05:31:21;;;;;;;;;;;;;;;15.05;100.00;100905.22;1836456;76;20142;-72
2024/04/08 05:33:47;;;;;;;;;;;;;;;15.50;100.00;100898.91;1837604;77;20108;-73
2024/04/08 05:36:16;;;;;;;;;;;;;;;15.94;100.00;100898.73;1830425;76;20136;-71
2024/04/08 05:38:42;;;;;;;;;;;;;;;16.32;100.00;100901.48;1838352;76;20084;-70
2024/04/08 05:41:08;;;;;;;;;;;;;;;16.61;100.00;100899.05;1828688;76;20127;-73
2024/04/08 05:43:35;;;;;;;;;;;;;;;16.91;100.00;100893.98;1845985;76;20136;-74
2024/04/08 05:46:03;;;;;;;;;;;;;;;17.20;100.00;100902.00;1849340;76;20088;-72
2024/04/08 05:48:39;;;;;;;;;;;;;;;17.48;100.00;100902.23;1835536;76;20150;-72
2024/04/08 05:51:07;;;;;;;;;;;;;;;17.76;100.00;100900.28;1815940;77;20374;-76
2024/04/08 05:53:45;;;;;;;;;;;;;;;18.04;100.00;100904.37;1842119;76;20249;-76
2024/04/08 05:56:34;;;;;;;;;;;;;;;18.22;100.00;100905.19;1846660;76;20159;-70
2024/04/08 05:59:01;;;;;;;;;;;;;;;18.34;100.00;100902.13;1857217;75;20120;-70
2024/04/08 06:01:29;;;;;;;;;;;;;;;18.35;100.00;100900.33;1850213;77;20086;-69
2024/04/08 06:03:56;;;;;;;;;;;;;;;18.30;100.00;100901.98;1847175;77;20120;-70
2024/04/08 06:06:22;;;;;;;;;;;;;;;18.23;100.00;100904.70;1855350;76;20431;-72
2024/04/08 06:08:54;;;;;;;;;;;;;;;18.20;100.00;100913.68;1784502;77;20096;-73
2024/04/08 06:11:18;;;;;;;;;;;;;;;18.20;100.00;100911.52;1834488;75;20102;-73
2024/04/08 06:13:50;;;;;;;;;;;;;;;18.27;100.00;100912.28;1826070;77;20143;-73
2024/04/08 06:16:16;;;;;;;;;;;;;;;18.38;100.00;100918.08;1843531;76;20140;-73
2024/04/08 06:18:43;;;;;;;;;;;;;;;18.56;100.00;100907.92;1826154;76;20109;-72
2024/04/08 06:21:10;;;;;;;;;;;;;;;18.79;100.00;100911.50;1855052;75;20213;-75
2024/04/08 06:23:38;;;;;;;;;;;;;;;19.02;100.00;100908.40;1854585;76;20278;-74
2024/04/08 06:26:05;;;;;;;;;;;;;;;19.25;100.00;100904.79;1861320;76;20080;-73
2024/04/08 06:28:33;;;;;;;;;;;;;;;19.44;100.00;100903.70;1813774;78;20472;-76
2024/04/08 06:31:01;;;;;;;;;;;;;;;19.57;100.00;100900.97;1845383;76;20163;-70
2024/04/08 06:33:29;;;;;;;;;;;;;;;19.62;100.00;100900.94;1860858;76;20226;-74
2024/04/08 06:35:55;;;;;;;;;;;;;;;19.60;100.00;100901.53;1830931;76;20119;-75
2024/04/08 06:38:25;;;;;;;;;;;;;;;19.52;100.00;100907.94;1845937;75;20084;-74
2024/04/08 06:40:52;;;;;;;;;;;;;;;19.43;100.00;100909.11;1827600;76;20127;-77
2024/04/08 06:43:22;;;;;;;;;;;;;;;19.39;100.00;100901.06;1853498;76;20120;-72
2024/04/08 06:46:00;;;;;;;;;;;;;;;19.42;100.00;100897.70;1847953;76;20198;-79
2024/04/08 06:48:27;;;;;;;;;;;;;;;19.50;100.00;100903.70;1856021;76;20397;-74
2024/04/08 06:50:54;;;;;;;;;;;;;;;19.57;100.00;100901.81;1834960;76;20143;-76
2024/04/08 06:53:22;;;;;;;;;;;;;;;19.63;89.17;100907.06;1842470;76;20091;-75
2024/04/08 06:55:49;;;;;;;;;;;;;;;19.66;88.23;100905.50;1842778;76;20548;-71
2024/04/08 06:58:19;;;;;;;;;;;;;;;19.72;87.60;100910.77;1857493;76;20206;-75
2024/04/08 07:00:50;;;;;;;;;;;;;;;19.84;86.33;100913.75;1842783;76;20168;-73
2024/04/08 07:03:19;;;;;;;;;;;;;;;19.98;84.21;100914.33;1809008;77;20118;-69
2024/04/08 07:05:46;;;;;;;;;;;;;;;20.19;83.33;100910.39;1839134;76;20147;-76
2024/04/08 07:08:13;;;;;;;;;;;;;;;20.42;80.89;100913.79;1816479;76;20385;-72
2024/04/08 07:10:49;;;;;;;;;;;;;;;20.66;79.60;100911.39;1840531;76;20112;-76
2024/04/08 07:13:17;;;;;;;;;;;;;;;20.90;77.58;100911.94;1849413;76;20160;-77
2024/04/08 07:15:57;;;;;;;;;;;;;;;21.11;75.81;100902.17;1789511;78;20110;-78
2024/04/08 07:18:25;;;;;;;;;;;;;;;21.31;74.64;100904.42;1835053;76;20131;-76
2024/04/08 07:20:52;;;;;;;;;;;;;;;21.56;73.95;100900.48;1796645;79;20134;-72
2024/04/08 07:23:19;;;;;;;;;;;;;;;21.77;72.16;100901.69;1772542;79;20140;-73
2024/04/08 07:25:45;;;;;;;;;;;;;;;21.93;70.37;100896.21;1845719;76;20352;-78
2024/04/08 07:28:11;;;;;;;;;;;;;;;22.09;68.98;100895.67;1851399;76;20125;-74
2024/04/08 07:30:38;;;;;;;;;;;;;;;22.23;68.63;100897.92;1832596;76;20098;-71
2024/04/08 07:33:05;;;;;;;;;;;;;;;22.38;67.53;100893.52;1835067;76;20132;-72
2024/04/08 07:35:32;;;;;;;;;;;;;;;22.51;66.56;100892.23;1784229;77;20410;-74
2024/04/08 07:37:59;;;;;;;;;;;;;;;22.60;66.15;100886.56;1778370;79;20226;-74
2024/04/08 07:40:25;;;;;;;;;;;;;;;22.76;66.17;100889.95;1772211;79;20121;-74
2024/04/08 07:42:52;;;;;;;;;;;;;;;22.88;64.64;100890.14;1772303;79;20321;-68
2024/04/08 07:45:18;;;;;;;;;;;;;;;23.01;64.54;100892.48;1853574;76;20107;-69
2024/04/08 07:47:45;;;;;;;;;;;;;;;23.12;63.50;100895.80;1806623;77;20295;-75
2024/04/08 07:50:11;;;;;;;;;;;;;;;23.20;63.00;100893.72;1845557;76;20159;-76
2024/04/08 07:52:39;;;;;;;;;;;;;;;23.27;61.41;100895.65;1842378;76;20094;-71
2024/04/08 07:55:06;;;;;;;;;;;;;;;23.29;61.61;100892.35;1835003;76;20459;-75
2024/04/08 07:57:33;;;;;;;;;;;;;;;23.37;61.12;100897.42;1848394;76;20144;-75
2024/04/08 08:00:08;;;;;;;;;;;;;;;23.40;60.08;100891.82;1836677;77;20244;-70
2024/04/08 08:02:37;;;;;;;;;;;;;;;23.40;60.46;100883.84;1816718;77;20185;-71
2024/04/08 08:05:04;;;;;;;;;;;;;;;23.43;59.67;100881.73;1774128;80;20130;-73
2024/04/08 08:07:31;;;;;;;;;;;;;;;23.44;59.16;100886.06;1777788;79;20145;-76
2024/04/08 08:10:00;;;;;;;;;;;;;;;23.51;59.23;100879.66;1780388;79;20315;-74
2024/04/08 08:12:26;;;;;;;;;;;;;;;23.59;59.58;100885.11;1783190;79;20112;-73
2024/04/08 08:14:53;;;;;;;;;;;;;;;23.63;57.74;100878.97;1768160;79;20161;-75
2024/04/08 08:17:30;;;;;;;;;;;;;;;23.59;58.41;100877.13;1859471;76;20131;-76
2024/04/08 08:19:56;;;;;;;;;;;;;;;23.63;58.68;100869.66;1849537;76;20100;-76
2024/04/08 08:22:24;;;;;;;;;;;;;;;23.69;58.46;100861.09;1833111;77;20100;-77
2024/04/08 08:24:51;;;;;;;;;;;;;;;23.71;58.47;100857.79;1836290;77;20118;-72
2024/04/08 08:27:17;;;;;;;;;;;;;;;23.76;58.35;100868.32;1825339;77;20128;-70
2024/04/08 08:29:57;;;;;;;;;;;;;;;23.83;57.91;100864.57;1855448;75;20167;-71
2024/04/08 08:32:27;;;;;;;;;;;;;;;23.87;57.91;100862.79;1844483;76;20475;-75
2024/04/08 08:34:56;;;;;;;;;;;;;;;23.97;57.83;100861.88;1844645;76;20150;-73
2024/04/08 08:37:22;;;;;;;;;;;;;;;24.02;57.00;100859.57;1812676;78;20134;-71
2024/04/08 08:39:50;;;;;;;;;;;;;;;24.00;56.27;100858.89;1780055;79;20087;-75
2024/04/08 08:42:21;;;;;;;;;;;;;;;23.98;55.96;100859.56;1840137;76;20117;-75
2024/04/08 08:44:52;;;;;;;;;;;;;;;23.93;56.23;100856.03;1817373;77;20138;-71
2024/04/08 08:47:22;;;;;;;;;;;;;;;23.88;55.85;100850.33;1833006;77;20143;-72
2024/04/08 08:49:53;;;;;;;;;;;;;;;23.85;56.06;100855.95;1852411;75;20450;-77
2024/04/08 08:52:42;;;;;;;;;;;;;;;23.81;55.42;100854.08;1844509;76;20231;-71
2024/04/08 08:55:03;;;;;;;;;;;;;;;23.76;55.46;100856.84;1829042;76;20185;-69
2024/04/08 08:57:33;;;;;;;;;;;;;;;23.70;55.83;100854.30;1840244;76;20159;-74
2024/04/08 09:00:05;;;;;;;;;;;;;;;23.67;55.38;100848.44;1848037;76;20106;-76
2024/04/08 09:02:34;;;;;;;;;;;;;;;23.59;55.70;100845.23;1851718;76;20106;-73
2024/04/08 09:05:00;;;;;;;;;;;;;;;23.51;55.45;100846.44;1809333;77;20147;-72
2024/04/08 09:07:29;;;;;;;;;;;;;;;23.43;54.83;100845.02;1820505;77;20217;-71
2024/04/08 09:10:00;;;;;;;;;;;;;;;23.32;55.11;100843.39;1837169;76;20160;-74
2024/04/08 09:12:30;;;;;;;;;;;;;;;23.19;55.39;100843.72;1816021;76;20102;-71
2024/04/08 09:14:57;;;;;;;;;;;;;;;23.07;55.32;100846.75;1849531;76;20446;-71
2024/04/08 09:17:24;;;;;;;;;;;;;;;22.95;55.71;100843.44;1849511;76;20363;-71
2024/04/08 09:19:50;;;;;;;;;;;;;;;22.85;56.16;100841.30;1838954;76;20089;-69
2024/04/08 09:22:19;;;;;;;;;;;;;;;22.74;56.49;100836.16;1846526;76;20135;-69
2024/04/08 09:24:52;;;;;;;;;;;;;;;22.65;56.95;100831.71;1855007;76;20147;-68
2024/04/08 09:27:23;;;;;;;;;;;;;;;22.57;57.51;100829.28;1849146;76;20111;-69
2024/04/08 09:29:49;;;;;;;;;;;;;;;22.51;57.02;100821.05;1833094;77;20132;-72
2024/04/08 09:32:15;;;;;;;;;;;;;;;22.45;56.98;100825.11;1834541;76;20142;-75
2024/04/08 09:34:45;;;;;;;;;;;;;;;22.39;57.63;100823.55;1845339;76;20137;-73
2024/04/08 09:37:14;;;;;;;;;;;;;;;22.32;57.90;100827.25;1830036;76;20160;-69
2024/04/08 09:39:56;;;;;;;;;;;;;;;22.25;57.71;100819.52;1808427;77;20413;-74
2024/04/08 09:42:33;;;;;;;;;;;;;;;22.19;58.03;100820.91;1798122;76;20157;-72
2024/04/08 09:45:00;;;;;;;;;;;;;;;22.11;57.93;100818.61;1826875;77;20100;-74
2024/04/08 09:47:27;;;;;;;;;;;;;;;22.01;58.16;100813.31;1834065;76;20100;-73
2024/04/08 09:49:57;;;;;;;;;;;;;;;21.96;58.80;100816.37;1848325;76;20416;-74
2024/04/08 09:52:26;;;;;;;;;;;;;;;21.92;59.45;100817.63;1828629;76;20126;-69
2024/04/08 09:54:58;;;;;;;;;;;;;;;21.91;58.80;100815.12;1863929;76;20149;-72
2024/04/08 09:57:39;;;;;;;;;;;;;;;21.90;58.23;100824.05;1830181;76;20498;-72
2024/04/08 10:00:21;;;;;;;;;;;;;;;21.87;57.61;100813.23;1841895;77;20111;-72
2024/04/08 10:02:48;;;;;;;;;;;;;;;21.84;57.01;100805.56;1831815;77;20385;-72
2024/04/08 10:05:15;;;;;;;;;;;;;;;21.82;56.62;100800.05;1807514;77;20441;-77
2024/04/08 10:07:44;;;;;;;;;;;;;;;21.81;56.89;100800.53;1855426;76;20884;-72
2024/04/08 10:10:12;;;;;;;;;;;;;;;21.79;56.70;100802.48;1838901;76;20164;-72
2024/04/08 10:12:46;;;;;;;;;;;;;;;21.77;57.13;100792.99;1849695;76;20614;-71
2024/04/08 10:15:15;;;;;;;;;;;;;;;21.76;56.96;100792.16;1798569;78;20123;-72
2024/04/08 10:17:43;;;;;;;;;;;;;;;21.76;56.65;100789.50;1827342;77;20100;-71
2024/04/08 10:20:14;;;;;;;;;;;;;;;21.76;56.69;100793.48;1855076;76;20103;-73
2024/04/08 10:22:41;;;;;;;;;;;;;;;21.76;56.74;100793.97;1852669;76;20105;-73
2024/04/08 10:25:28;;;;;;;;;;;;;;;21.74;56.46;100791.94;1831526;76;20114;-70
2024/04/08 10:28:18;;;;;;;;;;;;;;;21.71;56.03;100789.08;1855955;76;20097;-69
2024/04/08 10:30:49;;;;;;;;;;;;;;;21.69;55.08;100793.69;1810602;76;20092;-71
2024/04/08 10:33:18;;;;;;;;;;;;;;;21.65;54.49;100796.27;1845913;76;20155;-71
2024/04/08 10:35:50;;;;;;;;;;;;;;;21.63;54.15;100784.95;1825445;77;20141;-71
2024/04/08 10:38:17;;;;;;;;;;;;;;;21.61;54.10;100782.45;1845751;76;20116;-71
2024/04/08 10:40:45;;;;;;;;;;;;;;;21.61;54.61;100781.12;1871530;76;20552;-73
2024/04/08 10:43:14;;;;;;;;;;;;;;;21.62;54.91;100776.66;1829950;76;20202;-69
2024/04/08 10:45:41;;;;;;;;;;;;;;;21.61;54.88;100771.84;1838518;75;20375;-70
2024/04/08 10:48:16;;;;;;;;;;;;;;;21.60;53.50;100768.84;1838028;77;20123;-69
2024/04/08 10:50:41;;;;;;;;;;;;;;;21.59;53.09;100769.81;1831047;77;20088;-70
2024/04/08 10:53:12;;;;;;;;;;;;;;;21.60;52.51;100763.54;1818773;77;20266;-71
2024/04/08 10:55:38;;;;;;;;;;;;;;;21.62;53.00;100760.75;1834798;76;20120;-75
2024/04/08 10:58:05;;;;;;;;;;;;;;;21.58;53.61;100760.22;1799676;76;20122;-71
2024/04/08 11:00:31;;;;;;;;;;;;;;;21.55;54.21;100758.34;1859573;76;20190;-71
2024/04/08 11:02:59;;;;;;;;;;;;;;;21.54;54.69;100754.02;1759490;76;20203;-71
2024/04/08 11:05:30;;;;;;;;;;;;;;;21.54;54.67;100747.39;1852379;76;20119;-77
2024/04/08 11:08:00;;;;;;;;;;;;;;;21.54;54.97;100748.71;1845670;76;20123;-74
2024/04/08 11:10:27;;;;;;;;;;;;;;;21.53;54.43;100746.55;1838473;76;20127;-68
2024/04/08 11:12:59;;;;;;;;;;;;;;;21.53;54.91;100739.09;1837269;76;20481;-70
2024/04/08 11:15:29;;;;;;;;;;;;;;;21.52;54.81;100733.44;1838160;76;20124;-75
2024/04/08 11:17:59;;;;;;;;;;;;;;;21.52;55.25;100732.11;1849864;76;20119;-76
2024/04/08 11:20:28;;;;;;;;;;;;;;;21.51;54.78;100735.73;1801809;77;20163;-71
2024/04/08 11:22:55;;;;;;;;;;;;;;;21.47;53.42;100727.72;1811494;76;20142;-73
2024/04/08 11:25:25;;;;;;;;;;;;;;;21.40;53.82;100731.41;1835419;75;20115;-75
2024/04/08 11:28:52;;;;;;;;;;;;;;;;;;;;;
2024/04/08 11:31:31;;;;;;;;;;;;;;;21.32;53.81;100719.33;1842365;76;20155;-74
2024/04/08 11:34:14;;;;;;;;;;;;;;;21.31;53.91;100717.66;1828915;76;20149;-70
2024/04/08 11:36:48;;;;;;;;;;;;;;;21.29;53.52;100704.55;1821556;77;20147;-78
2024/04/08 11:39:18;;;;;;;;;;;;;;;21.27;53.58;100704.34;1836538;76;20115;-79
2024/04/08 11:41:44;;;;;;;;;;;;;;;21.25;54.16;100705.80;1837087;76;20152;-70
2024/04/08 11:44:11;;;;;;;;;;;;;;;21.26;53.48;100699.52;1837602;76;20101;-75
2024/04/08 11:46:39;;;;;;;;;;;;;;;21.26;52.59;100697.36;1830793;76;20276;-74
2024/04/08 11:49:07;;;;;;;;;;;;;;;21.26;52.49;100701.34;1839533;76;20171;-75
2024/04/08 11:51:33;;;;;;;;;;;;;;;21.25;51.71;100692.55;1852289;76;20137;-71
2024/04/08 11:54:00;;;;;;;;;;;;;;;21.24;51.24;100689.55;1833097;76;20113;-76
2024/04/08 11:56:57;;;;;;;;;;;;;;;21.25;50.91;100688.58;1853443;76;20107;-72
2024/04/08 11:59:29;;;;;;;;;;;;;;;21.24;50.39;100684.26;1859859;76;20127;-75
2024/04/08 12:01:56;;;;;;;;;;;;;;;21.23;50.81;100680.42;1854815;76;20108;-75
2024/04/08 12:04:23;;;;;;;;;;;;;;;21.23;51.35;100672.48;1848454;76;20381;-76
2024/04/08 12:06:49;;;;;;;;;;;;;;;21.23;51.63;100671.15;1801721;78;20166;-74
2024/04/08 12:09:16;;;;;;;;;;;;;;;21.23;51.60;100673.80;1786935;79;20099;-75
2024/04/08 12:18:05;;;;;;;;;;;;;;;21.26;52.00;100659.80;1847408;76;20135;-71
2024/04/08 12:20:32;;;;;;;;;;;;;;;21.29;51.11;100654.22;1840031;76;20427;-68
2024/04/08 12:22:58;;;;;;;;;;;;;;;21.30;51.06;100653.73;1837400;76;20177;-72
2024/04/08 12:28:46;;;;;;;;;;;;;;;21.34;49.83;100659.59;1842347;76;20157;-76
2024/04/08 12:31:16;;;;;;;;;;;;;;;21.35;49.55;100663.42;1840812;76;20176;-69
2024/04/08 12:33:43;;;;;;;;;;;;;;;21.34;49.15;100659.10;1854058;76;20155;-73
2024/04/08 12:36:16;;;;;;;;;;;;;;;21.35;49.86;100657.28;1791134;79;20184;-69
2024/04/08 12:38:57;;;;;;;;;;;;;;;21.36;49.96;100653.66;1851794;76;20100;-71
2024/04/08 12:41:25;;;;;;;;;;;;;;;21.37;49.53;100651.36;1816209;77;20136;-73
2024/04/08 12:43:56;;;;;;;;;;;;;;;21.38;48.79;100645.09;1828421;77;20218;-70
2024/04/08 12:46:22;;;;;;;;;;;;;;;21.38;48.39;100649.06;1851952;75;20146;-73
2024/04/08 12:48:49;;;;;;;;;;;;;;;21.40;48.27;100649.76;1847718;76;20183;-75
2024/04/08 12:51:16;;;;;;;;;;;;;;;21.40;48.95;100643.14;1838672;76;20092;-76
2024/04/08 12:53:44;;;;;;;;;;;;;;;21.42;48.96;100646.48;1803407;78;20382;-71
2024/04/08 12:56:11;;;;;;;;;;;;;;;21.43;48.71;100645.02;1810791;78;20122;-70
2024/04/08 12:58:41;;;;;;;;;;;;;;;21.45;48.59;100639.58;1848707;76;20494;-73
2024/04/08 13:01:08;;;;;;;;;;;;;;;21.48;48.56;100641.95;1838837;77;20117;-72
2024/04/08 13:03:35;;;;;;;;;;;;;;;21.50;48.38;100638.67;1844507;76;20087;-72
2024/04/08 13:06:01;;;;;;;;;;;;;;;21.52;48.33;100634.06;1862231;75;20092;-70
2024/04/08 13:08:29;;;;;;;;;;;;;;;21.53;48.26;100633.92;1845973;76;20092;-76
2024/04/08 13:10:55;;;;;;;;;;;;;;;21.54;48.10;100631.62;1852633;76;20179;-71
2024/04/08 13:13:22;;;;;;;;;;;;;;;21.55;47.76;100629.81;1851713;76;20406;-75
2024/04/08 13:15:50;;;;;;;;;;;;;;;21.57;47.84;100623.87;1837378;76;20135;-70
2024/04/08 13:18:19;;;;;;;;;;;;;;;21.57;48.08;100623.39;1842474;76;20352;-71
2024/04/08 13:20:46;;;;;;;;;;;;;;;21.57;48.13;100626.04;1845076;76;20171;-70
2024/04/08 13:23:14;;;;;;;;;;;;;;;21.58;47.86;100614.95;1841426;76;20132;-73
2024/04/08 13:25:41;;;;;;;;;;;;;;;21.57;48.05;100611.47;1832754;77;20151;-76
2024/04/08 13:28:07;;;;;;;;;;;;;;;21.58;47.81;100608.33;1834392;77;20163;-76
2024/04/08 13:30:37;;;;;;;;;;;;;;;21.57;47.82;100602.67;1817804;77;20241;-73
2024/04/08 13:33:04;;;;;;;;;;;;;;;21.56;48.34;100609.79;1823387;76;20192;-72
2024/04/08 13:35:31;;;;;;;;;;;;;;;21.55;48.29;100605.47;1832729;76;20419;-71
2024/04/08 13:37:57;;;;;;;;;;;;;;;21.55;47.55;100607.28;1844765;76;20087;-73
2024/04/08 13:40:23;;;;;;;;;;;;;;;21.52;47.71;100609.73;1845861;76;20102;-69
2024/04/08 13:42:53;;;;;;;;;;;;;;;21.52;47.34;100604.92;1816486;77;20144;-73
2024/04/08 13:45:23;;;;;;;;;;;;;;;21.50;47.47;100614.33;1844900;76;20117;-74
2024/04/08 13:47:49;;;;;;;;;;;;;;;21.49;47.73;100616.63;1830964;77;20167;-70
2024/04/08 13:50:15;;;;;;;;;;;;;;;21.49;48.04;100621.09;1833099;76;20151;-71
2024/04/08 13:52:42;;;;;;;;;;;;;;;21.48;47.99;100618.94;1789231;79;20713;-69
2024/04/08 13:55:15;;;;;;;;;;;;;;;21.48;47.94;100614.13;1849413;76;20171;-73
2024/04/08 13:57:42;;;;;;;;;;;;;;;21.47;47.95;100623.89;1832828;77;20484;-74
2024/04/08 14:00:09;;;;;;;;;;;;;;;21.47;48.43;100620.41;1827411;76;20093;-72
2024/04/08 14:02:36;;;;;;;;;;;;;;;21.46;48.47;100622.70;1848299;76;20170;-73
